createdAt,value
2024-01-01T00:02:31.920Z,5.30
2024-01-01T00:12:31.563Z,5.10
2024-01-01T00:22:31.181Z,6.10
2024-01-01T00:32:30.951Z,7.70
2024-01-01T00:42:30.371Z,8.10
2024-01-01T00:52:30.079Z,7.20
2024-01-01T01:02:29.798Z,7.30
2024-01-01T01:12:29.242Z,8.20
2024-01-01T01:22:29.190Z,6.50
2024-01-01T01:32:28.497Z,5.20
2024-01-01T01:42:28.156Z,4.00
2024-01-01T01:52:27.735Z,3.60
2024-01-01T02:02:27.393Z,3.20
2024-01-01T02:12:27.263Z,2.50
2024-01-01T02:22:26.611Z,2.40
2024-01-01T02:32:26.344Z,2.40
2024-01-01T02:42:25.957Z,2.10
2024-01-01T02:52:25.417Z,1.90
2024-01-01T03:02:26.669Z,2.10
2024-01-01T03:12:24.656Z,1.60
2024-01-01T03:22:24.294Z,2.00
2024-01-01T03:32:23.952Z,2.10
2024-01-01T03:42:23.512Z,2.20
2024-01-01T03:52:23.148Z,2.10
2024-01-01T04:02:17.747Z,2.60
2024-01-01T04:12:17.376Z,2.20
2024-01-01T04:22:16.969Z,2.10
2024-01-01T04:32:16.727Z,2.30
2024-01-01T04:42:16.239Z,2.00
2024-01-01T04:52:15.818Z,2.30
2024-01-01T05:02:15.443Z,2.40
2024-01-01T05:12:15.031Z,2.60
2024-01-01T05:22:14.651Z,2.30
2024-01-01T05:32:14.367Z,2.50
2024-01-01T05:42:13.890Z,2.40
2024-01-01T05:52:13.516Z,2.40
2024-01-01T06:02:13.163Z,2.50
2024-01-01T06:12:12.727Z,2.60
2024-01-01T06:22:12.364Z,2.10
2024-01-01T06:32:12.013Z,2.30
2024-01-01T06:42:12.927Z,2.10
2024-01-01T06:52:11.241Z,1.90
2024-01-01T07:02:11.187Z,2.60
2024-01-01T07:12:05.577Z,2.40
2024-01-01T07:22:05.381Z,2.20
2024-01-01T07:32:04.699Z,2.10
2024-01-01T07:42:04.328Z,2.00
2024-01-01T07:52:03.949Z,2.00
2024-01-01T08:02:03.649Z,2.00
2024-01-01T08:12:03.173Z,1.90
2024-01-01T08:22:02.819Z,1.80
2024-01-01T08:32:02.448Z,1.80
2024-01-01T08:42:02.255Z,2.00
2024-01-01T08:52:01.673Z,1.60
2024-01-01T09:02:01.366Z,1.80
2024-01-01T09:12:00.915Z,1.60
2024-01-01T09:22:00.583Z,1.80
2024-01-01T09:32:00.201Z,1.80
2024-01-01T09:41:59.791Z,2.00
2024-01-01T09:51:54.263Z,1.70
2024-01-01T10:01:53.719Z,1.90
2024-01-01T10:11:53.320Z,1.60
2024-01-01T10:21:52.984Z,2.00
2024-01-01T10:31:52.739Z,2.00
2024-01-01T10:41:52.231Z,2.20
2024-01-01T10:51:51.854Z,2.10
2024-01-01T11:01:51.562Z,1.70
2024-01-01T11:11:51.143Z,2.20
2024-01-01T11:21:50.745Z,2.30
2024-01-01T11:31:50.366Z,2.10
2024-01-01T11:41:50.037Z,2.20
2024-01-01T11:51:49.608Z,2.30
2024-01-01T12:01:49.278Z,2.20
2024-01-01T12:11:48.869Z,2.10
2024-01-01T12:21:48.516Z,2.20
2024-01-01T12:31:48.156Z,2.40
2024-01-01T12:41:47.798Z,2.20
2024-01-01T12:51:42.138Z,3.00
2024-01-01T13:01:41.758Z,2.20
2024-01-01T13:11:41.375Z,2.10
2024-01-01T13:21:40.997Z,2.20
2024-01-01T13:31:40.656Z,2.30
2024-01-01T13:41:40.484Z,2.70
2024-01-01T13:51:39.854Z,2.60
2024-01-01T14:01:39.810Z,2.60
2024-01-01T14:11:39.094Z,2.80
2024-01-01T14:21:38.759Z,2.40
2024-01-01T14:31:38.500Z,4.40
2024-01-01T14:41:38.319Z,2.60
2024-01-01T14:51:37.596Z,3.10
2024-01-01T15:01:37.266Z,2.90
2024-01-01T15:11:36.823Z,2.90
2024-01-01T15:21:36.664Z,5.30
2024-01-01T15:31:36.130Z,2.50
2024-01-01T15:41:35.746Z,3.20
2024-01-01T15:51:38.705Z,3.10
2024-01-01T16:01:34.983Z,3.00
2024-01-01T16:11:34.674Z,3.70
2024-01-01T16:21:34.240Z,3.00
2024-01-01T16:31:33.853Z,2.60
2024-01-01T16:41:33.502Z,3.00
2024-01-01T16:51:33.074Z,2.80
2024-01-01T17:01:32.743Z,2.70
2024-01-01T17:11:32.376Z,3.70
2024-01-01T17:21:31.949Z,2.90
2024-01-01T17:31:26.426Z,2.70
2024-01-01T17:41:26.380Z,4.10
2024-01-01T17:51:25.721Z,3.90
2024-01-01T18:01:25.358Z,2.90
2024-01-01T18:11:25.008Z,3.40
2024-01-01T18:21:24.584Z,5.40
2024-01-01T18:31:24.431Z,2.80
2024-01-01T18:41:23.910Z,5.60
2024-01-01T18:51:23.631Z,4.20
2024-01-01T19:01:23.161Z,2.50
2024-01-01T19:11:22.891Z,3.30
2024-01-01T19:21:22.390Z,3.10
2024-01-01T19:31:22.065Z,2.70
2024-01-01T19:41:21.713Z,3.40
2024-01-01T19:51:21.304Z,2.70
2024-01-01T20:01:20.914Z,2.50
2024-01-01T20:11:20.596Z,2.70
2024-01-01T20:21:20.151Z,3.30
2024-01-01T20:31:19.800Z,2.50
2024-01-01T20:41:19.487Z,2.70
2024-01-01T20:51:19.084Z,2.60
2024-01-01T21:01:18.783Z,2.60
2024-01-01T21:11:18.428Z,2.50
2024-01-01T21:21:18.029Z,2.60
2024-01-01T21:31:17.605Z,2.20
2024-01-01T21:41:17.273Z,3.10
2024-01-01T21:51:16.917Z,2.60
2024-01-01T22:01:16.550Z,2.70
2024-01-01T22:11:16.151Z,2.50
2024-01-01T22:21:15.800Z,2.80
2024-01-01T22:31:17.467Z,2.10
2024-01-01T22:41:15.058Z,2.30
2024-01-01T22:51:14.957Z,2.50
2024-01-01T23:01:14.335Z,2.50
2024-01-01T23:11:14.077Z,2.50
2024-01-01T23:21:13.915Z,2.50
2024-01-01T23:31:13.169Z,2.30
2024-01-01T23:41:12.812Z,2.20
2024-01-01T23:51:12.550Z,2.20
